sensor_id;sensor_type;location;lat;lon;timestamp;pressure;altitude;pressure_sealevel;temperature;humidity
60832;BME280;46665;51.558;-0.448;2022-07-03T00:01:03;101350.13;;;12.84;100.00
60832;BME280;46665;51.558;-0.448;2022-07-03T00:03:29;101356.44;;;12.84;100.00
60832;BME280;46665;51.558;-0.448;2022-07-03T00:05:55;101350.44;;;12.82;100.00
60832;BME280;46665;51.558;-0.448;2022-07-03T00:08:20;101346.88;;;12.82;100.00
60832;BME280;46665;51.558;-0.448;2022-07-03T00:10:46;101349.06;;;12.85;100.00
60832;BME280;46665;51.558;-0.448;2022-07-03T00:13:12;101361.34;;;12.82;100.00
60832;BME280;46665;51.558;-0.448;2022-07-03T00:15:37;101358.06;;;12.80;100.00
60832;BME280;46665;51.558;-0.448;2022-07-03T00:18:04;101353.97;;;12.77;100.00
60832;BME280;46665;51.558;-0.448;2022-07-03T00:20:30;101352.38;;;12.76;100.00
60832;BME280;46665;51.558;-0.448;2022-07-03T00:23:04;101356.19;;;12.70;100.00
60832;BME280;46665;51.558;-0.448;2022-07-03T00:25:33;101354.03;;;12.62;100.00
60832;BME280;46665;51.558;-0.448;2022-07-03T00:27:59;101352.94;;;12.58;100.00
60832;BME280;46665;51.558;-0.448;2022-07-03T00:30:25;101342.59;;;12.55;100.00
60832;BME280;46665;51.558;-0.448;2022-07-03T00:32:52;101348.84;;;12.55;100.00
60832;BME280;46665;51.558;-0.448;2022-07-03T00:35:18;101341.78;;;12.49;100.00
60832;BME280;46665;51.558;-0.448;2022-07-03T00:37:45;101342.34;;;12.41;100.00
60832;BME280;46665;51.558;-0.448;2022-07-03T00:40:10;101344.53;;;12.39;100.00
60832;BME280;46665;51.558;-0.448;2022-07-03T00:42:38;101338.28;;;12.28;100.00
60832;BME280;46665;51.558;-0.448;2022-07-03T00:45:06;101334.72;;;12.23;100.00
60832;BME280;46665;51.558;-0.448;2022-07-03T00:47:35;101340.75;;;12.20;100.00
60832;BME280;46665;51.558;-0.448;2022-07-03T00:50:07;101343.47;;;12.14;100.00
60832;BME280;46665;51.558;-0.448;2022-07-03T00:52:34;101338.84;;;12.10;100.00
60832;BME280;46665;51.558;-0.448;2022-07-03T00:55:07;101347.31;;;12.08;100.00
60832;BME280;46665;51.558;-0.448;2022-07-03T00:57:33;101336.13;;;12.05;100.00
60832;BME280;46665;51.558;-0.448;2022-07-03T01:00:00;101341.31;;;12.01;100.00
60832;BME280;46665;51.558;-0.448;2022-07-03T01:05:16;101341.56;;;11.95;100.00
60832;BME280;46665;51.558;-0.448;2022-07-03T01:10:57;101347.00;;;11.84;100.00
60832;BME280;46665;51.558;-0.448;2022-07-03T01:18:49;101327.09;;;11.63;100.00
60832;BME280;46665;51.558;-0.448;2022-07-03T01:21:36;101339.63;;;11.69;100.00
60832;BME280;46665;51.558;-0.448;2022-07-03T01:24:28;101336.91;;;11.64;100.00
60832;BME280;46665;51.558;-0.448;2022-07-03T01:27:07;101342.63;;;11.63;100.00
60832;BME280;46665;51.558;-0.448;2022-07-03T01:32:15;101348.63;;;11.55;100.00
60832;BME280;46665;51.558;-0.448;2022-07-03T01:34:43;101335.50;;;11.46;100.00
60832;BME280;46665;51.558;-0.448;2022-07-03T01:37:14;101345.88;;;11.44;100.00
60832;BME280;46665;51.558;-0.448;2022-07-03T01:39:43;101333.31;;;11.38;100.00
60832;BME280;46665;51.558;-0.448;2022-07-03T01:42:10;101351.59;;;11.38;100.00
60832;BME280;46665;51.558;-0.448;2022-07-03T01:44:39;101348.56;;;11.34;100.00
60832;BME280;46665;51.558;-0.448;2022-07-03T01:47:06;101350.22;;;11.30;100.00
60832;BME280;46665;51.558;-0.448;2022-07-03T01:49:32;101362.47;;;11.27;100.00
60832;BME280;46665;51.558;-0.448;2022-07-03T01:51:58;101348.81;;;11.22;100.00
60832;BME280;46665;51.558;-0.448;2022-07-03T01:54:25;101361.63;;;11.22;100.00
60832;BME280;46665;51.558;-0.448;2022-07-03T01:56:53;101346.66;;;11.19;100.00
60832;BME280;46665;51.558;-0.448;2022-07-03T01:59:19;101352.91;;;11.20;100.00
60832;BME280;46665;51.558;-0.448;2022-07-03T02:01:52;101351.78;;;11.16;100.00
60832;BME280;46665;51.558;-0.448;2022-07-03T02:04:28;101363.75;;;11.10;100.00
60832;BME280;46665;51.558;-0.448;2022-07-03T02:10:07;101354.75;;;11.04;100.00
60832;BME280;46665;51.558;-0.448;2022-07-03T02:12:40;101359.34;;;10.98;100.00
60832;BME280;46665;51.558;-0.448;2022-07-03T02:15:17;101349.31;;;10.99;100.00
60832;BME280;46665;51.558;-0.448;2022-07-03T02:17:45;101356.63;;;10.98;100.00
60832;BME280;46665;51.558;-0.448;2022-07-03T02:20:13;101353.63;;;10.95;100.00
60832;BME280;46665;51.558;-0.448;2022-07-03T02:22:42;101354.16;;;10.92;100.00
60832;BME280;46665;51.558;-0.448;2022-07-03T02:25:19;101354.69;;;10.89;100.00
60832;BME280;46665;51.558;-0.448;2022-07-03T02:27:55;101355.22;;;10.85;100.00
60832;BME280;46665;51.558;-0.448;2022-07-03T02:30:23;101351.69;;;10.90;100.00
60832;BME280;46665;51.558;-0.448;2022-07-03T02:32:51;101353.59;;;10.90;100.00
60832;BME280;46665;51.558;-0.448;2022-07-03T02:35:19;101356.88;;;10.87;100.00
60832;BME280;46665;51.558;-0.448;2022-07-03T02:38:10;101342.41;;;10.86;100.00
60832;BME280;46665;51.558;-0.448;2022-07-03T02:40:44;101335.34;;;10.85;100.00
60832;BME280;46665;51.558;-0.448;2022-07-03T02:46:10;101337.25;;;10.84;100.00
60832;BME280;46665;51.558;-0.448;2022-07-03T02:48:59;101347.03;;;10.85;100.00
60832;BME280;46665;51.558;-0.448;2022-07-03T02:51:34;101348.69;;;10.87;100.00
60832;BME280;46665;51.558;-0.448;2022-07-03T02:54:08;101357.94;;;10.85;100.00
60832;BME280;46665;51.558;-0.448;2022-07-03T02:56:49;101352.50;;;10.85;100.00
60832;BME280;46665;51.558;-0.448;2022-07-03T03:02:19;101361.97;;;10.78;100.00
60832;BME280;46665;51.558;-0.448;2022-07-03T03:04:59;101353.78;;;10.73;100.00
60832;BME280;46665;51.558;-0.448;2022-07-03T03:07:31;101358.97;;;10.69;100.00
60832;BME280;46665;51.558;-0.448;2022-07-03T03:09:59;101359.78;;;10.70;100.00
60832;BME280;46665;51.558;-0.448;2022-07-03T03:12:37;101362.75;;;10.68;100.00
60832;BME280;46665;51.558;-0.448;2022-07-03T03:15:05;101345.03;;;10.66;100.00
60832;BME280;46665;51.558;-0.448;2022-07-03T03:17:42;101355.41;;;10.63;100.00
60832;BME280;46665;51.558;-0.448;2022-07-03T03:20:14;101351.00;;;10.57;100.00
60832;BME280;46665;51.558;-0.448;2022-07-03T03:25:52;101342.22;;;10.45;100.00
60832;BME280;46665;51.558;-0.448;2022-07-03T03:28:18;101340.59;;;10.44;100.00
60832;BME280;46665;51.558;-0.448;2022-07-03T03:30:44;101343.00;;;10.40;100.00
60832;BME280;46665;51.558;-0.448;2022-07-03T03:33:09;101347.59;;;10.35;100.00
60832;BME280;46665;51.558;-0.448;2022-07-03T03:35:36;101345.41;;;10.32;100.00
60832;BME280;46665;51.558;-0.448;2022-07-03T03:38:03;101352.19;;;10.29;100.00
60832;BME280;46665;51.558;-0.448;2022-07-03T03:40:29;101353.81;;;10.30;100.00
60832;BME280;46665;51.558;-0.448;2022-07-03T03:42:56;101345.94;;;10.29;100.00
60832;BME280;46665;51.558;-0.448;2022-07-03T03:45:21;101347.25;;;10.26;100.00
60832;BME280;46665;51.558;-0.448;2022-07-03T03:47:46;101344.50;;;10.21;100.00
60832;BME280;46665;51.558;-0.448;2022-07-03T03:50:12;101339.56;;;10.18;100.00
60832;BME280;46665;51.558;-0.448;2022-07-03T03:52:37;101344.69;;;10.14;100.00
60832;BME280;46665;51.558;-0.448;2022-07-03T03:55:03;101349.03;;;10.10;100.00
60832;BME280;46665;51.558;-0.448;2022-07-03T03:57:28;101346.31;;;10.10;100.00
60832;BME280;46665;51.558;-0.448;2022-07-03T03:59:55;101358.25;;;10.09;100.00
60832;BME280;46665;51.558;-0.448;2022-07-03T04:02:21;101365.00;;;10.02;100.00
60832;BME280;46665;51.558;-0.448;2022-07-03T04:04:46;101361.94;;;9.93;100.00
60832;BME280;46665;51.558;-0.448;2022-07-03T04:07:12;101361.63;;;9.89;100.00
60832;BME280;46665;51.558;-0.448;2022-07-03T04:09:37;101359.69;;;9.85;100.00
60832;BME280;46665;51.558;-0.448;2022-07-03T04:12:03;101369.44;;;9.81;100.00
60832;BME280;46665;51.558;-0.448;2022-07-03T04:14:28;101361.88;;;9.83;100.00
60832;BME280;46665;51.558;-0.448;2022-07-03T04:16:54;101363.78;;;9.87;100.00
60832;BME280;46665;51.558;-0.448;2022-07-03T04:19:19;101375.22;;;9.89;100.00
60832;BME280;46665;51.558;-0.448;2022-07-03T04:21:46;101369.25;;;9.92;100.00
60832;BME280;46665;51.558;-0.448;2022-07-03T04:24:11;101366.03;;;9.95;100.00
60832;BME280;46665;51.558;-0.448;2022-07-03T04:26:37;101361.72;;;9.99;100.00
60832;BME280;46665;51.558;-0.448;2022-07-03T04:29:02;101359.31;;;10.03;100.00
60832;BME280;46665;51.558;-0.448;2022-07-03T04:31:28;101357.97;;;10.06;100.00
60832;BME280;46665;51.558;-0.448;2022-07-03T04:33:53;101350.88;;;10.05;100.00
60832;BME280;46665;51.558;-0.448;2022-07-03T04:36:18;101353.59;;;10.05;100.00
60832;BME280;46665;51.558;-0.448;2022-07-03T04:38:44;101354.16;;;10.07;100.00
60832;BME280;46665;51.558;-0.448;2022-07-03T04:41:10;101359.63;;;10.12;100.00
60832;BME280;46665;51.558;-0.448;2022-07-03T04:43:35;101353.66;;;10.15;100.00
60832;BME280;46665;51.558;-0.448;2022-07-03T04:46:03;101351.78;;;10.15;100.00
60832;BME280;46665;51.558;-0.448;2022-07-03T04:48:30;101361.34;;;10.18;100.00
60832;BME280;46665;51.558;-0.448;2022-07-03T04:50:56;101365.69;;;10.19;100.00
60832;BME280;46665;51.558;-0.448;2022-07-03T04:53:21;101368.41;;;10.19;100.00
60832;BME280;46665;51.558;-0.448;2022-07-03T04:55:47;101365.44;;;10.20;100.00
60832;BME280;46665;51.558;-0.448;2022-07-03T04:58:12;101370.63;;;10.27;100.00
60832;BME280;46665;51.558;-0.448;2022-07-03T05:00:38;101367.16;;;10.32;100.00
60832;BME280;46665;51.558;-0.448;2022-07-03T05:03:06;101361.50;;;10.38;100.00
60832;BME280;46665;51.558;-0.448;2022-07-03T05:05:32;101377.59;;;10.45;100.00
60832;BME280;46665;51.558;-0.448;2022-07-03T05:07:58;101381.72;;;10.53;100.00
60832;BME280;46665;51.558;-0.448;2022-07-03T05:10:24;101378.22;;;10.57;100.00
60832;BME280;46665;51.558;-0.448;2022-07-03T05:12:49;101385.34;;;10.63;100.00
60832;BME280;46665;51.558;-0.448;2022-07-03T05:15:15;101381.28;;;10.71;100.00
60832;BME280;46665;51.558;-0.448;2022-07-03T05:17:41;101382.13;;;10.77;100.00
60832;BME280;46665;51.558;-0.448;2022-07-03T05:20:07;101379.47;;;10.92;100.00
60832;BME280;46665;51.558;-0.448;2022-07-03T05:22:58;101384.47;;;11.16;100.00
60832;BME280;46665;51.558;-0.448;2022-07-03T05:25:24;101388.06;;;11.32;100.00
60832;BME280;46665;51.558;-0.448;2022-07-03T05:27:51;101384.56;;;11.46;100.00
60832;BME280;46665;51.558;-0.448;2022-07-03T05:30:18;101387.31;;;11.52;100.00
60832;BME280;46665;51.558;-0.448;2022-07-03T05:32:45;101389.00;;;11.68;100.00
60832;BME280;46665;51.558;-0.448;2022-07-03T05:35:10;101402.63;;;11.78;100.00
60832;BME280;46665;51.558;-0.448;2022-07-03T05:37:36;101403.78;;;11.98;100.00
60832;BME280;46665;51.558;-0.448;2022-07-03T05:40:03;101408.13;;;11.99;100.00
60832;BME280;46665;51.558;-0.448;2022-07-03T05:42:29;101408.94;;;12.09;100.00
60832;BME280;46665;51.558;-0.448;2022-07-03T05:44:54;101413.34;;;12.21;100.00
60832;BME280;46665;51.558;-0.448;2022-07-03T05:47:19;101418.50;;;12.27;100.00
60832;BME280;46665;51.558;-0.448;2022-07-03T05:49:45;101416.31;;;12.14;100.00
60832;BME280;46665;51.558;-0.448;2022-07-03T05:52:10;101417.13;;;12.30;100.00
60832;BME280;46665;51.558;-0.448;2022-07-03T05:54:36;101422.88;;;12.28;100.00
60832;BME280;46665;51.558;-0.448;2022-07-03T05:57:01;101411.41;;;12.26;100.00
60832;BME280;46665;51.558;-0.448;2022-07-03T05:59:27;101412.78;;;12.29;100.00
60832;BME280;46665;51.558;-0.448;2022-07-03T06:01:52;101410.88;;;12.24;100.00
60832;BME280;46665;51.558;-0.448;2022-07-03T06:04:18;101406.50;;;12.13;100.00
60832;BME280;46665;51.558;-0.448;2022-07-03T06:06:43;101408.69;;;12.26;100.00
60832;BME280;46665;51.558;-0.448;2022-07-03T06:09:08;101412.78;;;12.34;100.00
60832;BME280;46665;51.558;-0.448;2022-07-03T06:11:34;101411.94;;;12.49;100.00
60832;BME280;46665;51.558;-0.448;2022-07-03T06:14:00;101402.94;;;12.48;100.00
60832;BME280;46665;51.558;-0.448;2022-07-03T06:16:25;101403.75;;;12.59;100.00
60832;BME280;46665;51.558;-0.448;2022-07-03T06:18:50;101401.53;;;12.66;100.00
60832;BME280;46665;51.558;-0.448;2022-07-03T06:21:16;101407.81;;;12.72;100.00
60832;BME280;46665;51.558;-0.448;2022-07-03T06:23:41;101403.69;;;12.79;100.00
60832;BME280;46665;51.558;-0.448;2022-07-03T06:26:07;101406.44;;;12.74;100.00
60832;BME280;46665;51.558;-0.448;2022-07-03T06:28:32;101403.69;;;12.79;100.00
60832;BME280;46665;51.558;-0.448;2022-07-03T06:30:58;101414.31;;;12.86;100.00
60832;BME280;46665;51.558;-0.448;2022-07-03T06:33:23;101400.94;;;12.90;100.00
60832;BME280;46665;51.558;-0.448;2022-07-03T06:35:49;101405.81;;;12.93;100.00
60832;BME280;46665;51.558;-0.448;2022-07-03T06:38:18;101416.75;;;12.93;100.00
60832;BME280;46665;51.558;-0.448;2022-07-03T06:40:43;101416.22;;;12.86;100.00
60832;BME280;46665;51.558;-0.448;2022-07-03T06:43:08;101413.50;;;12.86;100.00
60832;BME280;46665;51.558;-0.448;2022-07-03T06:45:34;101409.41;;;12.83;100.00
60832;BME280;46665;51.558;-0.448;2022-07-03T06:47:59;101400.66;;;12.81;100.00
60832;BME280;46665;51.558;-0.448;2022-07-03T06:50:25;101407.81;;;12.72;100.00
60832;BME280;46665;51.558;-0.448;2022-07-03T06:52:50;101409.19;;;12.64;100.00
60832;BME280;46665;51.558;-0.448;2022-07-03T06:55:16;101412.16;;;12.68;100.00
60832;BME280;46665;51.558;-0.448;2022-07-03T06:57:42;101410.53;;;12.67;100.00
60832;BME280;46665;51.558;-0.448;2022-07-03T07:00:08;101409.41;;;12.78;100.00
60832;BME280;46665;51.558;-0.448;2022-07-03T07:02:34;101409.41;;;12.83;100.00
60832;BME280;46665;51.558;-0.448;2022-07-03T07:04:59;101405.56;;;12.89;100.00
60832;BME280;46665;51.558;-0.448;2022-07-03T07:07:25;101403.09;;;12.93;100.00
60832;BME280;46665;51.558;-0.448;2022-07-03T07:09:50;101407.75;;;12.92;100.00
60832;BME280;46665;51.558;-0.448;2022-07-03T07:12:16;101413.47;;;12.91;100.00
60832;BME280;46665;51.558;-0.448;2022-07-03T07:14:41;101422.78;;;12.85;100.00
60832;BME280;46665;51.558;-0.448;2022-07-03T07:17:07;101423.88;;;12.78;100.00
60832;BME280;46665;51.558;-0.448;2022-07-03T07:19:33;101427.72;;;12.77;100.00
60832;BME280;46665;51.558;-0.448;2022-07-03T07:21:59;101432.66;;;12.70;100.00
60832;BME280;46665;51.558;-0.448;2022-07-03T07:24:29;101437.03;;;12.76;100.00
60832;BME280;46665;51.558;-0.448;2022-07-03T07:26:54;101431.53;;;12.82;100.00
60832;BME280;46665;51.558;-0.448;2022-07-03T07:29:20;101424.97;;;12.88;100.00
60832;BME280;46665;51.558;-0.448;2022-07-03T07:31:45;101430.97;;;12.90;100.00
60832;BME280;46665;51.558;-0.448;2022-07-03T07:34:11;101429.56;;;13.02;100.00
60832;BME280;46665;51.558;-0.448;2022-07-03T07:36:37;101434.78;;;12.99;100.00
60832;BME280;46665;51.558;-0.448;2022-07-03T07:39:02;101433.94;;;12.98;100.00
60832;BME280;46665;51.558;-0.448;2022-07-03T07:41:28;101434.75;;;13.09;100.00
60832;BME280;46665;51.558;-0.448;2022-07-03T07:43:53;101434.19;;;13.07;100.00
60832;BME280;46665;51.558;-0.448;2022-07-03T07:46:18;101433.34;;;13.17;100.00
60832;BME280;46665;51.558;-0.448;2022-07-03T07:48:44;101439.63;;;13.17;100.00
60832;BME280;46665;51.558;-0.448;2022-07-03T07:51:10;101442.38;;;13.17;100.00
60832;BME280;46665;51.558;-0.448;2022-07-03T07:53:37;101440.69;;;13.21;100.00
60832;BME280;46665;51.558;-0.448;2022-07-03T07:56:03;101444.22;;;13.37;100.00
60832;BME280;46665;51.558;-0.448;2022-07-03T07:58:28;101445.25;;;13.47;100.00
60832;BME280;46665;51.558;-0.448;2022-07-03T08:00:54;101445.25;;;13.47;100.00
60832;BME280;46665;51.558;-0.448;2022-07-03T08:03:38;101444.69;;;13.55;100.00
60832;BME280;46665;51.558;-0.448;2022-07-03T08:06:22;101447.94;;;13.57;100.00
60832;BME280;46665;51.558;-0.448;2022-07-03T08:08:47;101449.56;;;13.63;100.00
60832;BME280;46665;51.558;-0.448;2022-07-03T08:11:13;101455.59;;;13.60;100.00
60832;BME280;46665;51.558;-0.448;2022-07-03T08:13:38;101459.13;;;13.65;100.00
60832;BME280;46665;51.558;-0.448;2022-07-03T08:16:04;101459.38;;;13.69;100.00
60832;BME280;46665;51.558;-0.448;2022-07-03T08:18:30;101461.22;;;13.79;100.00
60832;BME280;46665;51.558;-0.448;2022-07-03T08:20:55;101459.81;;;13.86;100.00
60832;BME280;46665;51.558;-0.448;2022-07-03T08:23:20;101457.59;;;13.94;100.00
60832;BME280;46665;51.558;-0.448;2022-07-03T08:25:46;101452.84;;;14.04;100.00
60832;BME280;46665;51.558;-0.448;2022-07-03T08:28:11;101450.94;;;14.05;100.00
60832;BME280;46665;51.558;-0.448;2022-07-03T08:30:37;101454.00;;;13.98;100.00
60832;BME280;46665;51.558;-0.448;2022-07-03T08:33:02;101450.38;;;14.08;100.00
60832;BME280;46665;51.558;-0.448;2022-07-03T08:35:28;101452.16;;;14.23;100.00
60832;BME280;46665;51.558;-0.448;2022-07-03T08:37:55;101451.53;;;14.36;100.00
60832;BME280;46665;51.558;-0.448;2022-07-03T08:40:21;101464.41;;;14.36;100.00
60832;BME280;46665;51.558;-0.448;2022-07-03T08:42:48;101464.59;;;14.44;98.79
60832;BME280;46665;51.558;-0.448;2022-07-03T08:45:19;101462.44;;;14.41;99.50
60832;BME280;46665;51.558;-0.448;2022-07-03T08:47:46;101464.06;;;14.42;94.29
60832;BME280;46665;51.558;-0.448;2022-07-03T08:50:14;101464.53;;;14.55;95.46
60832;BME280;46665;51.558;-0.448;2022-07-03T08:52:41;101456.13;;;14.75;94.53
60832;BME280;46665;51.558;-0.448;2022-07-03T08:55:08;101451.47;;;15.00;86.87
60832;BME280;46665;51.558;-0.448;2022-07-03T08:57:36;101451.53;;;15.18;88.34
60832;BME280;46665;51.558;-0.448;2022-07-03T09:00:04;101453.13;;;15.25;84.44
60832;BME280;46665;51.558;-0.448;2022-07-03T09:02:32;101449.09;;;15.17;86.91
60832;BME280;46665;51.558;-0.448;2022-07-03T09:04:59;101452.13;;;15.15;85.86
60832;BME280;46665;51.558;-0.448;2022-07-03T09:07:31;101447.34;;;15.02;83.20
60832;BME280;46665;51.558;-0.448;2022-07-03T09:09:59;101461.38;;;14.95;82.82
60832;BME280;46665;51.558;-0.448;2022-07-03T09:12:25;101453.03;;;15.06;83.60
60832;BME280;46665;51.558;-0.448;2022-07-03T09:14:51;101448.84;;;15.13;84.09
60832;BME280;46665;51.558;-0.448;2022-07-03T09:17:16;101450.38;;;15.25;84.71
60832;BME280;46665;51.558;-0.448;2022-07-03T09:19:44;101444.91;;;15.44;81.32
60832;BME280;46665;51.558;-0.448;2022-07-03T09:22:22;101441.28;;;15.67;79.06
60832;BME280;46665;51.558;-0.448;2022-07-03T09:24:49;101446.16;;;15.75;80.17
60832;BME280;46665;51.558;-0.448;2022-07-03T09:27:22;101451.63;;;15.94;79.01
60832;BME280;46665;51.558;-0.448;2022-07-03T09:32:41;101455.47;;;16.12;77.84
60832;BME280;46665;51.558;-0.448;2022-07-03T09:35:20;101446.59;;;16.20;77.13
60832;BME280;46665;51.558;-0.448;2022-07-03T09:37:53;101456.97;;;16.23;75.50
60832;BME280;46665;51.558;-0.448;2022-07-03T09:40:20;101452.19;;;16.29;74.60
60832;BME280;46665;51.558;-0.448;2022-07-03T09:43:05;101448.06;;;16.45;75.72
60832;BME280;46665;51.558;-0.448;2022-07-03T09:45:58;101453.00;;;16.62;75.11
60832;BME280;46665;51.558;-0.448;2022-07-03T09:48:32;101448.63;;;16.61;74.84
60832;BME280;46665;51.558;-0.448;2022-07-03T09:51:23;101453.09;;;16.57;75.26
60832;BME280;46665;51.558;-0.448;2022-07-03T09:54:01;101449.81;;;16.55;73.86
60832;BME280;46665;51.558;-0.448;2022-07-03T09:56:33;101455.84;;;16.57;73.54
60832;BME280;46665;51.558;-0.448;2022-07-03T10:01:25;101451.06;;;16.63;71.37
60832;BME280;46665;51.558;-0.448;2022-07-03T10:03:51;101462.19;;;16.72;72.41
60832;BME280;46665;51.558;-0.448;2022-07-03T10:06:16;101452.97;;;16.81;72.62
60832;BME280;46665;51.558;-0.448;2022-07-03T10:08:42;101458.38;;;17.00;71.06
60832;BME280;46665;51.558;-0.448;2022-07-03T10:11:09;101451.16;;;17.18;70.63
60832;BME280;46665;51.558;-0.448;2022-07-03T10:13:37;101456.34;;;17.20;68.24
60832;BME280;46665;51.558;-0.448;2022-07-03T10:16:07;101450.72;;;17.39;69.39
60832;BME280;46665;51.558;-0.448;2022-07-03T10:18:36;101453.75;;;17.51;68.71
60832;BME280;46665;51.558;-0.448;2022-07-03T10:21:08;101453.06;;;17.45;68.91
60832;BME280;46665;51.558;-0.448;2022-07-03T10:23:34;101458.88;;;17.30;68.88
60832;BME280;46665;51.558;-0.448;2022-07-03T10:26:00;101458.47;;;17.23;69.44
60832;BME280;46665;51.558;-0.448;2022-07-03T10:28:27;101453.59;;;17.20;69.15
60832;BME280;46665;51.558;-0.448;2022-07-03T10:30:52;101460.00;;;17.29;69.53
60832;BME280;46665;51.558;-0.448;2022-07-03T10:33:18;101463.44;;;17.48;68.02
60832;BME280;46665;51.558;-0.448;2022-07-03T10:35:48;101461.78;;;17.61;65.86
60832;BME280;46665;51.558;-0.448;2022-07-03T10:38:40;101469.19;;;17.74;66.13
60832;BME280;46665;51.558;-0.448;2022-07-03T10:41:16;101452.47;;;17.85;63.52
60832;BME280;46665;51.558;-0.448;2022-07-03T10:44:04;101455.97;;;17.90;65.23
60832;BME280;46665;51.558;-0.448;2022-07-03T10:46:49;101455.25;;;17.85;64.55
60832;BME280;46665;51.558;-0.448;2022-07-03T10:49:15;101454.22;;;17.67;65.73
60832;BME280;46665;51.558;-0.448;2022-07-03T10:52:16;101454.91;;;17.50;65.74
60832;BME280;46665;51.558;-0.448;2022-07-03T10:54:50;101460.69;;;17.48;63.38
60832;BME280;46665;51.558;-0.448;2022-07-03T10:57:17;101454.78;;;17.55;64.17
60832;BME280;46665;51.558;-0.448;2022-07-03T11:02:19;101455.84;;;17.95;61.81
60832;BME280;46665;51.558;-0.448;2022-07-03T11:25:50;101445.41;;;18.91;55.72
60832;BME280;46665;51.558;-0.448;2022-07-03T11:36:28;101456.09;;;19.24;54.46
60832;BME280;46665;51.558;-0.448;2022-07-03T11:41:23;101460.19;;;19.44;54.70
60832;BME280;46665;51.558;-0.448;2022-07-03T11:43:51;101451.47;;;19.51;55.35
60832;BME280;46665;51.558;-0.448;2022-07-03T11:46:28;101473.72;;;19.63;55.34
60832;BME280;46665;51.558;-0.448;2022-07-03T11:49:16;101471.94;;;19.58;55.35
60832;BME280;46665;51.558;-0.448;2022-07-03T11:52:03;101464.75;;;19.48;55.87
60832;BME280;46665;51.558;-0.448;2022-07-03T11:54:31;101456.44;;;19.31;54.12
60832;BME280;46665;51.558;-0.448;2022-07-03T11:56:57;101461.66;;;19.33;54.06
60832;BME280;46665;51.558;-0.448;2022-07-03T11:59:23;101459.25;;;19.48;53.42
60832;BME280;46665;51.558;-0.448;2022-07-03T12:01:48;101457.28;;;19.49;48.87
60832;BME280;46665;51.558;-0.448;2022-07-03T12:04:19;101453.41;;;19.59;48.66
60832;BME280;46665;51.558;-0.448;2022-07-03T12:06:50;101457.97;;;19.55;50.48
60832;BME280;46665;51.558;-0.448;2022-07-03T12:11:58;101461.34;;;19.52;51.80
60832;BME280;46665;51.558;-0.448;2022-07-03T12:16:59;101457.97;;;19.63;51.80
60832;BME280;46665;51.558;-0.448;2022-07-03T12:19:24;101453.81;;;19.83;50.15
60832;BME280;46665;51.558;-0.448;2022-07-03T12:21:49;101454.94;;;19.91;49.10
60832;BME280;46665;51.558;-0.448;2022-07-03T12:24:15;101453.28;;;20.07;51.63
60832;BME280;46665;51.558;-0.448;2022-07-03T12:26:40;101448.22;;;20.35;49.25
60832;BME280;46665;51.558;-0.448;2022-07-03T12:29:10;101452.47;;;20.42;47.95
60832;BME280;46665;51.558;-0.448;2022-07-03T12:31:44;101461.41;;;20.30;49.93
60832;BME280;46665;51.558;-0.448;2022-07-03T12:34:11;101456.06;;;20.16;50.10
60832;BME280;46665;51.558;-0.448;2022-07-03T12:36:37;101453.44;;;20.20;51.08
60832;BME280;46665;51.558;-0.448;2022-07-03T12:39:03;101461.06;;;20.40;50.97
60832;BME280;46665;51.558;-0.448;2022-07-03T12:41:29;101465.28;;;20.64;47.75
60832;BME280;46665;51.558;-0.448;2022-07-03T12:43:58;101466.69;;;20.78;47.55
60832;BME280;46665;51.558;-0.448;2022-07-03T12:48:52;101454.81;;;20.78;47.40
60832;BME280;46665;51.558;-0.448;2022-07-03T12:51:41;101458.28;;;20.66;47.91
60832;BME280;46665;51.558;-0.448;2022-07-03T12:54:09;101451.47;;;20.55;48.19
60832;BME280;46665;51.558;-0.448;2022-07-03T12:56:34;101455.84;;;20.65;48.94
60832;BME280;46665;51.558;-0.448;2022-07-03T12:59:00;101458.94;;;20.63;48.59
60832;BME280;46665;51.558;-0.448;2022-07-03T13:02:10;101450.00;;;20.58;48.65
60832;BME280;46665;51.558;-0.448;2022-07-03T13:04:37;101448.69;;;20.64;49.11
60832;BME280;46665;51.558;-0.448;2022-07-03T13:09:28;101450.44;;;21.15;48.22
60832;BME280;46665;51.558;-0.448;2022-07-03T13:11:53;101457.38;;;21.21;47.47
60832;BME280;46665;51.558;-0.448;2022-07-03T13:14:19;101450.06;;;21.26;46.40
60832;BME280;46665;51.558;-0.448;2022-07-03T13:16:49;101455.47;;;21.52;44.61
60832;BME280;46665;51.558;-0.448;2022-07-03T13:19:17;101444.66;;;21.59;43.08
60832;BME280;46665;51.558;-0.448;2022-07-03T13:21:43;101447.59;;;21.83;43.55
60832;BME280;46665;51.558;-0.448;2022-07-03T13:24:09;101443.66;;;21.84;42.50
60832;BME280;46665;51.558;-0.448;2022-07-03T13:26:35;101438.72;;;21.69;41.29
60832;BME280;46665;51.558;-0.448;2022-07-03T13:29:02;101444.13;;;21.66;44.39
60832;BME280;46665;51.558;-0.448;2022-07-03T13:31:28;101447.56;;;21.33;43.44
60832;BME280;46665;51.558;-0.448;2022-07-03T13:33:54;101442.66;;;21.09;44.95
60832;BME280;46665;51.558;-0.448;2022-07-03T13:36:20;101448.56;;;20.98;44.77
60832;BME280;46665;51.558;-0.448;2022-07-03T13:38:45;101441.00;;;20.78;44.96
60832;BME280;46665;51.558;-0.448;2022-07-03T13:41:11;101438.75;;;20.71;45.24
60832;BME280;46665;51.558;-0.448;2022-07-03T13:43:37;101448.34;;;20.65;46.09
60832;BME280;46665;51.558;-0.448;2022-07-03T13:46:02;101453.41;;;20.63;46.85
60832;BME280;46665;51.558;-0.448;2022-07-03T13:48:28;101440.06;;;20.65;47.50
60832;BME280;46665;51.558;-0.448;2022-07-03T13:50:53;101445.44;;;20.62;45.85
60832;BME280;46665;51.558;-0.448;2022-07-03T13:53:19;101449.34;;;20.61;45.47
60832;BME280;46665;51.558;-0.448;2022-07-03T13:55:44;101446.41;;;20.48;46.32